Terminal Aerodrome Forecast
Issued by NWS Albany, NY

Home | Current Version | Previous Version | Text Only | Print | Product List | Glossary On
Versions: 1 2 3 4 5 6 7 8 9 10 11 12 13 14 15 16 17 18 19 20 21 22
000
FTUS41 KALY 100530
TAFALB
TAF
KALB 100530Z 1006/1106 17003KT P6SM VCSH BKN040 OVC080
      TEMPO 1006/1010 3SM -SN BR BKN030 OVC050
     FM101000 19003KT P6SM -SN OVC035
      TEMPO 1010/1012 4SM -SN BR OVC030
     FM101500 27007KT P6SM VCSH BKN040
     FM110200 28006KT P6SM SCT040 SCT080=

USA.gov is the U.S. government's official web portal to all federal, state and local government web resources and services.